Time,TemperatureF,DewpointF,PressureIn,WindDirection,WindDirectionDegrees,WindSpeedMPH,WindSpeedGustMPH,Humidity,HourlyPrecipIn,Conditions,Clouds,dailyrainin,SoftwareType,DateUTC
2013-07-12 00:00:00,69.8,68.3,27.88,WNW,292,0.0,0.0,95,0.00,,---,0.00,VWS V14.01,2013-07-12 04:00:00,
2013-07-12 00:01:00,69.8,68.3,27.88,WNW,292,0.0,0.0,95,0.00,,---,0.00,VWS V14.01,2013-07-12 04:01:00,
2013-07-12 00:02:00,69.8,68.3,27.88,NW,315,0.0,0.0,95,0.00,,---,0.00,VWS V14.01,2013-07-12 04:02:00,
2013-07-12 00:07:00,69.8,68.3,27.88,NW,315,0.0,1.3,95,0.00,,---,0.00,VWS V14.01,2013-07-12 04:07:00,
2013-07-12 00:12:00,69.8,68.3,27.88,NW,315,0.0,0.0,95,0.00,,---,0.00,VWS V14.01,2013-07-12 04:12:00,
2013-07-12 00:17:00,69.6,68.1,27.88,WSW,248,0.0,0.0,95,0.00,,---,0.00,VWS V14.01,2013-07-12 04:17:00,
2013-07-12 00:22:00,69.6,68.1,27.88,NW,315,0.0,0.0,95,0.00,,---,0.00,VWS V14.01,2013-07-12 04:22:00,
2013-07-12 00:27:00,69.6,68.1,27.88,NW,315,0.0,0.0,95,0.00,,---,0.00,VWS V14.01,2013-07-12 04:27:00,
2013-07-12 00:32:00,69.6,68.1,27.88,NW,315,0.0,0.0,95,0.00,,---,0.00,VWS V14.01,2013-07-12 04:32:00,
2013-07-12 00:37:00,69.4,67.9,27.88,WNW,292,0.0,0.0,95,0.00,,---,0.00,VWS V14.01,2013-07-12 04:37:00,
2013-07-12 00:42:00,69.4,67.9,27.88,WNW,292,0.0,0.0,95,0.00,,---,0.00,VWS V14.01,2013-07-12 04:42:00,
2013-07-12 00:47:00,69.4,68.2,27.88,NW,315,0.0,0.0,96,0.00,,---,0.00,VWS V14.01,2013-07-12 04:47:00,
2013-07-12 00:53:00,69.4,68.2,27.88,WNW,292,0.0,0.0,96,0.00,,---,0.00,VWS V14.01,2013-07-12 04:53:00,
2013-07-12 00:58:00,69.4,68.2,27.88,WNW,292,0.0,0.0,96,0.00,,---,0.00,VWS V14.01,2013-07-12 04:58:00,
2013-07-12 01:03:00,69.3,68.1,27.88,WNW,292,0.0,0.0,96,0.00,,---,0.00,VWS V14.01,2013-07-12 05:03:00,
2013-07-12 01:08:00,69.3,68.1,27.88,NNW,338,0.0,0.0,96,0.00,,---,0.00,VWS V14.01,2013-07-12 05:08:00,
2013-07-12 01:13:00,69.1,67.9,27.88,WNW,292,0.0,0.0,96,0.00,,---,0.00,VWS V14.01,2013-07-12 05:13:00,
2013-07-12 01:18:00,69.1,67.9,27.88,WNW,292,0.0,0.0,96,0.00,,---,0.00,VWS V14.01,2013-07-12 05:18:00,
2013-07-12 01:23:00,69.1,67.9,27.88,NW,315,0.0,0.0,96,0.00,,---,0.00,VWS V14.01,2013-07-12 05:23:00,
2013-07-12 01:28:00,69.1,67.9,27.88,NW,315,0.0,0.0,96,0.00,,---,0.00,VWS V14.01,2013-07-12 05:28:00,
2013-07-12 01:33:00,69.1,67.9,27.88,WSW,248,0.0,0.0,96,0.00,,---,0.00,VWS V14.01,2013-07-12 05:33:00,
2013-07-12 01:38:00,68.9,67.7,27.88,WNW,292,0.0,0.0,96,0.00,,---,0.00,VWS V14.01,2013-07-12 05:38:00,
2013-07-12 01:44:00,68.9,67.7,27.88,NW,315,0.0,1.3,96,0.00,,---,0.00,VWS V14.01,2013-07-12 05:44:00,
2013-07-12 01:49:00,68.9,67.7,27.88,WNW,292,0.0,0.0,96,0.00,,---,0.00,VWS V14.01,2013-07-12 05:49:00,
2013-07-12 01:54:00,68.7,67.5,27.88,NW,315,0.0,0.0,96,0.00,,---,0.00,VWS V14.01,2013-07-12 05:54:00,
2013-07-12 01:59:00,68.7,67.5,27.88,NW,315,0.0,0.0,96,0.00,,---,0.00,VWS V14.01,2013-07-12 05:59:00,
2013-07-12 02:04:00,68.7,67.5,27.88,WNW,292,0.0,0.0,96,0.00,,---,0.00,VWS V14.01,2013-07-12 06:04:00,
2013-07-12 02:09:00,68.7,67.5,27.88,NW,315,0.0,0.0,96,0.00,,---,0.00,VWS V14.01,2013-07-12 06:09:00,
2013-07-12 02:14:00,68.5,67.4,27.88,WNW,292,1.3,2.0,96,0.00,,---,0.00,VWS V14.01,2013-07-12 06:14:00,
2013-07-12 02:19:00,68.5,67.4,27.88,NNW,338,0.9,0.9,96,0.00,,---,0.00,VWS V14.01,2013-07-12 06:19:00,
2013-07-12 02:24:00,68.5,67.4,27.88,NNW,338,0.0,0.0,96,0.00,,---,0.00,VWS V14.01,2013-07-12 06:24:00,
2013-07-12 02:29:00,68.5,67.4,27.88,WNW,292,0.0,0.0,96,0.00,,---,0.00,VWS V14.01,2013-07-12 06:29:00,
2013-07-12 02:34:00,68.4,67.2,27.88,WNW,292,0.0,0.0,96,0.00,,---,0.00,VWS V14.01,2013-07-12 06:34:00,
2013-07-12 02:39:00,68.4,67.2,27.88,NNE,22,0.0,0.0,96,0.00,,---,0.00,VWS V14.01,2013-07-12 06:39:00,
2013-07-12 02:44:00,68.4,67.2,27.88,NW,315,0.0,1.3,96,0.00,,---,0.00,VWS V14.01,2013-07-12 06:44:00,
2013-07-12 02:50:00,68.2,67.0,27.88,WNW,292,0.0,0.0,96,0.00,,---,0.00,VWS V14.01,2013-07-12 06:50:00,
2013-07-12 02:55:00,68.2,67.0,27.88,NW,315,0.0,1.1,96,0.00,,---,0.00,VWS V14.01,2013-07-12 06:55:00,
2013-07-12 03:00:00,68.0,66.8,27.88,NNW,338,3.1,3.1,96,0.00,,---,0.00,VWS V14.01,2013-07-12 07:00:00,
2013-07-12 03:05:00,68.0,66.8,27.88,NNW,338,0.0,0.0,96,0.00,,---,0.00,VWS V14.01,2013-07-12 07:05:00,
2013-07-12 03:10:00,67.8,66.6,27.88,WNW,292,0.0,0.0,96,0.00,,---,0.00,VWS V14.01,2013-07-12 07:10:00,
2013-07-12 03:15:00,67.8,66.6,27.88,NNW,338,0.0,0.0,96,0.00,,---,0.00,VWS V14.01,2013-07-12 07:15:00,
2013-07-12 03:20:00,67.8,66.6,27.88,North,0,0.9,0.9,96,0.00,,---,0.00,VWS V14.01,2013-07-12 07:20:00,
2013-07-12 03:25:00,67.6,66.5,27.88,WNW,292,1.1,1.1,96,0.00,,---,0.00,VWS V14.01,2013-07-12 07:25:00,
2013-07-12 03:30:00,67.6,66.5,27.88,NW,315,0.0,0.0,96,0.00,,---,0.00,VWS V14.01,2013-07-12 07:30:00,
2013-07-12 03:35:00,67.6,66.5,27.88,NNE,22,0.0,4.3,96,0.00,,---,0.00,VWS V14.01,2013-07-12 07:35:00,
2013-07-12 03:40:00,67.6,66.5,27.88,ENE,68,0.0,0.0,96,0.00,,---,0.00,VWS V14.01,2013-07-12 07:40:00,
2013-07-12 03:46:00,67.5,66.3,27.88,NNW,338,0.9,1.1,96,0.00,,---,0.00,VWS V14.01,2013-07-12 07:46:00,
2013-07-12 03:51:00,67.5,66.3,27.88,NE,45,1.1,1.1,96,0.00,,---,0.00,VWS V14.01,2013-07-12 07:51:00,
2013-07-12 03:56:00,67.5,66.3,27.85,NW,315,0.0,0.0,96,0.00,,---,0.00,VWS V14.01,2013-07-12 07:56:00,
2013-07-12 04:01:00,67.3,66.1,27.85,NNE,22,1.1,1.1,96,0.00,,---,0.00,VWS V14.01,2013-07-12 08:01:00,
2013-07-12 04:06:00,67.3,66.1,27.85,NW,315,0.0,0.0,96,0.00,,---,0.00,VWS V14.01,2013-07-12 08:06:00,
2013-07-12 04:11:00,67.3,66.1,27.85,NNW,338,0.0,0.9,96,0.00,,---,0.00,VWS V14.01,2013-07-12 08:11:00,
2013-07-12 04:16:00,67.3,66.1,27.85,NE,45,2.2,2.2,96,0.00,,---,0.00,VWS V14.01,2013-07-12 08:16:00,
2013-07-12 04:21:00,67.1,65.6,27.85,WNW,292,1.3,1.3,95,0.00,,---,0.00,VWS V14.01,2013-07-12 08:21:00,
2013-07-12 04:26:00,67.1,65.6,27.85,East,90,0.9,1.3,95,0.00,,---,0.00,VWS V14.01,2013-07-12 08:26:00,
2013-07-12 04:31:00,67.1,65.6,27.85,WNW,292,0.0,1.1,95,0.00,,---,0.00,VWS V14.01,2013-07-12 08:31:00,
2013-07-12 04:37:00,67.1,65.6,27.85,WNW,292,0.9,0.9,95,0.00,,---,0.00,VWS V14.01,2013-07-12 08:37:00,
2013-07-12 04:42:00,67.1,65.6,27.85,NNW,338,1.3,1.6,95,0.00,,---,0.00,VWS V14.01,2013-07-12 08:42:00,
2013-07-12 04:47:00,67.1,65.6,27.85,WNW,292,0.9,0.9,95,0.00,,---,0.00,VWS V14.01,2013-07-12 08:47:00,
2013-07-12 04:52:00,67.1,65.6,27.88,WNW,292,0.0,1.3,95,0.00,,---,0.00,VWS V14.01,2013-07-12 08:52:00,
2013-07-12 04:57:00,67.1,65.6,27.88,ENE,68,2.0,2.7,95,0.00,,---,0.00,VWS V14.01,2013-07-12 08:57:00,
2013-07-12 05:02:00,66.9,65.4,27.88,NNW,338,0.0,0.0,95,0.00,,---,0.00,VWS V14.01,2013-07-12 09:02:00,
2013-07-12 05:07:00,66.9,65.4,27.85,NNW,338,0.0,1.3,95,0.00,,---,0.00,VWS V14.01,2013-07-12 09:07:00,
2013-07-12 05:12:00,66.7,65.3,27.85,NE,45,0.0,0.0,95,0.00,,---,0.00,VWS V14.01,2013-07-12 09:12:00,
2013-07-12 05:17:00,66.6,65.1,27.85,North,0,1.1,1.1,95,0.00,,---,0.00,VWS V14.01,2013-07-12 09:17:00,
2013-07-12 05:22:00,66.6,65.1,27.85,West,270,0.0,0.9,95,0.00,,---,0.00,VWS V14.01,2013-07-12 09:22:00,
2013-07-12 05:27:00,66.7,65.3,27.85,NNE,22,0.0,1.3,95,0.00,,---,0.00,VWS V14.01,2013-07-12 09:27:00,
2013-07-12 05:32:00,66.7,65.3,27.85,NNW,338,0.9,0.9,95,0.00,,---,0.00,VWS V14.01,2013-07-12 09:32:00,
2013-07-12 05:38:00,66.7,65.0,27.88,NW,315,2.5,2.5,94,0.00,,---,0.00,VWS V14.01,2013-07-12 09:38:00,
2013-07-12 05:43:00,66.7,65.0,27.88,WNW,292,1.6,1.6,94,0.00,,---,0.00,VWS V14.01,2013-07-12 09:43:00,
2013-07-12 05:48:00,66.7,65.0,27.88,West,270,0.0,0.0,94,0.00,,---,0.00,VWS V14.01,2013-07-12 09:48:00,
2013-07-12 05:53:00,66.7,65.0,27.88,NNE,22,0.0,0.0,94,0.00,,---,0.00,VWS V14.01,2013-07-12 09:53:00,
2013-07-12 05:58:00,66.7,65.0,27.88,NE,45,0.0,1.3,94,0.00,,---,0.00,VWS V14.01,2013-07-12 09:58:00,
2013-07-12 06:03:00,66.7,65.0,27.88,East,90,0.0,1.1,94,0.00,,---,0.00,VWS V14.01,2013-07-12 10:03:00,
2013-07-12 06:08:00,66.7,65.0,27.88,NW,315,0.0,0.9,94,0.00,,---,0.00,VWS V14.01,2013-07-12 10:08:00,
2013-07-12 06:13:00,66.6,64.8,27.88,North,0,0.0,0.0,94,0.00,,---,0.00,VWS V14.01,2013-07-12 10:13:00,
2013-07-12 06:18:00,66.6,64.5,27.88,NNW,338,2.2,2.2,93,0.00,,---,0.00,VWS V14.01,2013-07-12 10:18:00,
2013-07-12 06:23:00,66.6,64.5,27.88,NW,315,2.5,2.5,93,0.00,,---,0.00,VWS V14.01,2013-07-12 10:23:00,
2013-07-12 06:28:00,66.6,64.5,27.88,NNW,338,0.0,0.0,93,0.00,,---,0.00,VWS V14.01,2013-07-12 10:28:00,
2013-07-12 06:34:00,66.6,64.5,27.88,NW,315,1.3,1.3,93,0.00,,---,0.00,VWS V14.01,2013-07-12 10:34:00,
2013-07-12 06:39:00,66.4,64.3,27.88,SW,225,0.9,1.3,93,0.00,,---,0.00,VWS V14.01,2013-07-12 10:39:00,
2013-07-12 06:44:00,66.4,64.3,27.88,North,0,0.9,2.7,93,0.00,,---,0.00,VWS V14.01,2013-07-12 10:44:00,
2013-07-12 06:49:00,66.2,64.1,27.88,NW,315,0.0,0.9,93,0.00,,---,0.00,VWS V14.01,2013-07-12 10:49:00,
2013-07-12 06:54:00,66.2,64.1,27.88,NW,315,0.9,1.1,93,0.00,,---,0.00,VWS V14.01,2013-07-12 10:54:00,
2013-07-12 06:59:00,66.2,64.1,27.88,West,270,1.1,2.0,93,0.00,,---,0.00,VWS V14.01,2013-07-12 10:59:00,
2013-07-12 07:04:00,66.0,64.2,27.88,NNW,338,0.0,0.0,94,0.00,,---,0.00,VWS V14.01,2013-07-12 11:04:00,
2013-07-12 07:09:00,66.0,64.2,27.88,North,0,0.0,0.9,94,0.00,,---,0.00,VWS V14.01,2013-07-12 11:09:00,
2013-07-12 07:14:00,65.8,64.1,27.88,NW,315,0.0,0.0,94,0.00,,---,0.00,VWS V14.01,2013-07-12 11:14:00,
2013-07-12 07:19:00,65.8,64.1,27.88,NW,315,0.0,0.0,94,0.00,,---,0.00,VWS V14.01,2013-07-12 11:19:00,
2013-07-12 07:24:00,65.8,64.1,27.88,WNW,292,0.0,0.9,94,0.00,,---,0.00,VWS V14.01,2013-07-12 11:24:00,
2013-07-12 07:29:00,65.8,64.1,27.88,NW,315,0.0,0.0,94,0.00,,---,0.00,VWS V14.01,2013-07-12 11:29:00,
2013-07-12 07:34:00,66.0,64.2,27.88,WNW,292,0.0,0.9,94,0.00,,---,0.00,VWS V14.01,2013-07-12 11:34:00,
2013-07-12 07:39:00,66.2,64.1,27.88,SE,135,0.0,1.1,93,0.00,,---,0.00,VWS V14.01,2013-07-12 11:39:00,
2013-07-12 07:44:00,66.4,64.3,27.88,East,90,0.9,1.6,93,0.00,,---,0.00,VWS V14.01,2013-07-12 11:44:00,
2013-07-12 07:49:00,66.6,64.5,27.88,NW,315,0.0,0.9,93,0.00,,---,0.00,VWS V14.01,2013-07-12 11:49:00,
2013-07-12 07:54:00,66.7,64.7,27.88,North,0,1.6,4.0,93,0.00,,---,0.00,VWS V14.01,2013-07-12 11:54:00,
2013-07-12 07:59:00,66.7,64.7,27.88,ENE,68,0.0,0.0,93,0.00,,---,0.00,VWS V14.01,2013-07-12 11:59:00,
2013-07-12 08:05:00,66.9,64.8,27.88,NNW,338,0.9,0.9,93,0.00,,---,0.00,VWS V14.01,2013-07-12 12:05:00,
2013-07-12 08:10:00,67.1,65.0,27.88,NW,315,0.0,0.9,93,0.00,,---,0.00,VWS V14.01,2013-07-12 12:10:00,
2013-07-12 08:15:00,67.3,65.2,27.88,NNE,22,0.0,0.0,93,0.00,,---,0.00,VWS V14.01,2013-07-12 12:15:00,
2013-07-12 08:20:00,67.5,65.4,27.88,SW,225,0.0,1.3,93,0.00,,---,0.00,VWS V14.01,2013-07-12 12:20:00,
2013-07-12 08:25:00,67.6,65.6,27.88,NW,315,0.0,0.0,93,0.00,,---,0.00,VWS V14.01,2013-07-12 12:25:00,
2013-07-12 08:30:00,67.8,65.7,27.88,SE,135,0.0,0.0,93,0.00,,---,0.00,VWS V14.01,2013-07-12 12:30:00,
2013-07-12 08:35:00,68.2,66.1,27.88,East,90,1.3,2.0,93,0.00,,---,0.00,VWS V14.01,2013-07-12 12:35:00,
2013-07-12 08:40:00,68.5,66.1,27.88,North,0,0.0,0.0,92,0.00,,---,0.00,VWS V14.01,2013-07-12 12:40:00,
2013-07-12 08:45:00,68.9,66.5,27.88,WNW,292,0.0,1.6,92,0.00,,---,0.00,VWS V14.01,2013-07-12 12:45:00,
2013-07-12 08:50:00,69.3,66.2,27.90,WNW,292,0.9,3.6,90,0.00,,---,0.00,VWS V14.01,2013-07-12 12:50:00,
2013-07-12 08:55:00,69.6,66.6,27.90,East,90,0.9,2.7,90,0.00,,---,0.00,VWS V14.01,2013-07-12 12:55:00,
2013-07-12 09:00:00,69.8,66.4,27.90,WSW,248,0.0,1.3,89,0.00,,---,0.00,VWS V14.01,2013-07-12 13:00:00,
2013-07-12 09:05:00,70.0,66.6,27.90,North,0,1.1,2.9,89,0.00,,---,0.00,VWS V14.01,2013-07-12 13:05:00,
2013-07-12 09:10:00,70.0,66.3,27.90,WNW,292,1.1,2.5,88,0.00,,---,0.00,VWS V14.01,2013-07-12 13:10:00,
2013-07-12 09:15:00,70.2,66.4,27.90,NNE,22,0.9,0.9,88,0.00,,---,0.00,VWS V14.01,2013-07-12 13:15:00,
2013-07-12 09:21:00,70.5,66.8,27.90,NNE,22,0.0,1.3,88,0.00,,---,0.00,VWS V14.01,2013-07-12 13:21:00,
2013-07-12 09:25:00,71.2,67.5,27.90,WSW,248,0.0,1.1,88,0.00,,---,0.00,VWS V14.01,2013-07-12 13:25:00,
2013-07-12 09:31:00,72.7,68.3,27.90,WSW,248,0.0,3.6,86,0.00,,---,0.00,VWS V14.01,2013-07-12 13:31:00,
2013-07-12 09:36:00,73.2,68.1,27.90,NNE,22,2.5,3.8,84,0.00,,---,0.00,VWS V14.01,2013-07-12 13:36:00,
2013-07-12 09:41:00,73.8,67.6,27.90,WSW,248,0.9,2.2,81,0.00,,---,0.00,VWS V14.01,2013-07-12 13:41:00,
2013-07-12 09:46:00,74.1,67.6,27.90,ENE,68,0.9,3.4,80,0.00,,---,0.00,VWS V14.01,2013-07-12 13:46:00,
2013-07-12 09:51:00,74.3,67.7,27.90,NNW,338,0.0,1.3,80,0.00,,---,0.00,VWS V14.01,2013-07-12 13:51:00,
2013-07-12 09:56:00,75.0,68.4,27.90,NNW,338,3.1,3.1,80,0.00,,---,0.00,VWS V14.01,2013-07-12 13:56:00,
2013-07-12 10:01:00,75.4,68.1,27.90,SW,225,0.0,1.1,78,0.00,,---,0.00,VWS V14.01,2013-07-12 14:01:00,
2013-07-12 10:06:00,76.1,68.8,27.90,West,270,0.0,0.0,78,0.00,,---,0.00,VWS V14.01,2013-07-12 14:06:00,
2013-07-12 10:11:00,76.5,68.3,27.90,SE,135,2.0,2.0,76,0.00,,---,0.00,VWS V14.01,2013-07-12 14:11:00,
2013-07-12 10:16:00,76.5,67.9,27.90,West,270,0.0,0.9,75,0.00,,---,0.00,VWS V14.01,2013-07-12 14:16:00,
2013-07-12 10:21:00,76.5,67.6,27.90,East,90,2.5,2.5,74,0.00,,---,0.00,VWS V14.01,2013-07-12 14:21:00,
2013-07-12 10:26:00,77.4,68.4,27.90,ESE,112,3.4,3.4,74,0.00,,---,0.00,VWS V14.01,2013-07-12 14:26:00,
2013-07-12 10:31:00,77.7,68.8,27.90,SW,225,0.0,0.0,74,0.00,,---,0.00,VWS V14.01,2013-07-12 14:31:00,
2013-07-12 10:36:00,77.7,68.0,27.90,East,90,0.0,1.1,72,0.00,,---,0.00,VWS V14.01,2013-07-12 14:36:00,
2013-07-12 10:41:00,77.0,68.1,27.90,WNW,292,0.0,1.6,74,0.00,,---,0.00,VWS V14.01,2013-07-12 14:41:00,
2013-07-12 10:46:00,76.5,67.9,27.90,SW,225,0.9,1.1,75,0.00,,---,0.00,VWS V14.01,2013-07-12 14:46:00,
2013-07-12 10:52:00,76.5,67.9,27.90,NNW,338,0.0,0.0,75,0.00,,---,0.00,VWS V14.01,2013-07-12 14:52:00,
2013-07-12 10:57:00,75.7,67.6,27.90,ESE,112,0.0,1.1,76,0.00,,---,0.00,VWS V14.01,2013-07-12 14:57:00,
2013-07-12 11:02:00,76.1,68.4,27.90,SSW,202,0.0,2.7,77,0.00,,---,0.00,VWS V14.01,2013-07-12 15:02:00,
2013-07-12 11:07:00,76.6,67.7,27.93,SW,225,0.0,2.5,74,0.00,,---,0.00,VWS V14.01,2013-07-12 15:07:00,
2013-07-12 11:12:00,77.4,69.2,27.93,SW,225,0.0,0.0,76,0.00,,---,0.00,VWS V14.01,2013-07-12 15:12:00,
2013-07-12 11:17:00,77.7,68.4,27.93,NE,45,0.0,1.6,73,0.00,,---,0.00,VWS V14.01,2013-07-12 15:17:00,
2013-07-12 11:22:00,78.1,68.3,27.93,WNW,292,2.9,2.9,72,0.00,,---,0.00,VWS V14.01,2013-07-12 15:22:00,
2013-07-12 11:27:00,77.2,67.1,27.93,NNW,338,2.5,2.5,71,0.00,,---,0.00,VWS V14.01,2013-07-12 15:27:00,
2013-07-12 11:32:00,77.0,67.7,27.93,West,270,0.0,1.6,73,0.00,,---,0.00,VWS V14.01,2013-07-12 15:32:00,
2013-07-12 11:37:00,77.7,68.0,27.93,WNW,292,0.0,0.0,72,0.00,,---,0.00,VWS V14.01,2013-07-12 15:37:00,
2013-07-12 11:42:00,78.6,68.0,27.93,East,90,0.9,2.2,70,0.00,,---,0.00,VWS V14.01,2013-07-12 15:42:00,
2013-07-12 11:47:00,77.7,67.6,27.93,SSW,202,0.0,2.5,71,0.00,,---,0.00,VWS V14.01,2013-07-12 15:47:00,
2013-07-12 11:52:00,78.6,68.4,27.90,ENE,68,0.0,0.0,71,0.00,,---,0.00,VWS V14.01,2013-07-12 15:52:00,
2013-07-12 11:58:00,78.4,67.8,27.90,NNE,22,4.0,4.0,70,0.00,,---,0.00,VWS V14.01,2013-07-12 15:58:00,
2013-07-12 12:03:00,79.2,68.1,27.90,ESE,112,0.0,1.3,69,0.00,,---,0.00,VWS V14.01,2013-07-12 16:03:00,
2013-07-12 12:08:00,77.9,67.3,27.90,WSW,248,1.3,1.3,70,0.00,,---,0.00,VWS V14.01,2013-07-12 16:08:00,
2013-07-12 12:13:00,78.6,68.4,27.90,NW,315,0.0,0.0,71,0.00,,---,0.00,VWS V14.01,2013-07-12 16:13:00,
2013-07-12 12:18:00,79.5,68.5,27.90,WSW,248,0.0,1.3,69,0.00,,---,0.00,VWS V14.01,2013-07-12 16:18:00,
2013-07-12 12:23:00,79.0,67.5,27.90,East,90,0.0,1.1,68,0.00,,---,0.00,VWS V14.01,2013-07-12 16:23:00,
2013-07-12 12:28:00,80.4,68.9,27.90,West,270,0.9,0.9,68,0.00,,---,0.00,VWS V14.01,2013-07-12 16:28:00,
2013-07-12 12:33:00,78.8,67.4,27.90,SSW,202,0.0,0.0,68,0.00,,---,0.00,VWS V14.01,2013-07-12 16:33:00,
2013-07-12 12:38:00,78.4,67.0,27.90,ESE,112,1.3,2.2,68,0.00,,---,0.00,VWS V14.01,2013-07-12 16:38:00,
2013-07-12 12:43:00,80.8,68.8,27.90,SSW,202,0.0,0.0,67,0.00,,---,0.00,VWS V14.01,2013-07-12 16:43:00,
2013-07-12 12:48:00,81.7,69.2,27.90,SW,225,0.0,0.0,66,0.00,,---,0.00,VWS V14.01,2013-07-12 16:48:00,
2013-07-12 12:53:00,82.9,68.6,27.93,NW,315,2.5,4.3,62,0.00,,---,0.00,VWS V14.01,2013-07-12 16:53:00,
2013-07-12 12:58:00,81.1,67.4,27.93,West,270,0.0,0.0,63,0.00,,---,0.00,VWS V14.01,2013-07-12 16:58:00,
2013-07-12 13:04:00,80.1,66.8,27.93,West,270,0.0,0.9,64,0.00,,---,0.00,VWS V14.01,2013-07-12 17:04:00,
2013-07-12 13:09:00,80.8,67.0,27.90,WSW,248,0.0,2.5,63,0.00,,---,0.00,VWS V14.01,2013-07-12 17:09:00,
2013-07-12 13:14:00,79.5,67.2,27.90,West,270,1.3,1.3,66,0.00,,---,0.00,VWS V14.01,2013-07-12 17:14:00,
2013-07-12 13:19:00,81.9,68.9,27.90,East,90,2.0,2.0,65,0.00,,---,0.00,VWS V14.01,2013-07-12 17:19:00,
2013-07-12 13:24:00,82.6,67.8,27.90,West,270,0.9,1.1,61,0.00,,---,0.00,VWS V14.01,2013-07-12 17:24:00,
2013-07-12 13:29:00,83.1,68.3,27.90,SW,225,1.6,1.6,61,0.00,,---,0.00,VWS V14.01,2013-07-12 17:29:00,
2013-07-12 13:34:00,83.1,66.8,27.90,SE,135,0.0,1.1,58,0.00,,---,0.00,VWS V14.01,2013-07-12 17:34:00,
2013-07-12 13:40:00,81.3,67.1,27.90,West,270,0.0,0.9,62,0.00,,---,0.00,VWS V14.01,2013-07-12 17:40:00,
2013-07-12 13:45:00,81.3,67.5,27.90,SSE,158,0.0,2.0,63,0.00,,---,0.00,VWS V14.01,2013-07-12 17:45:00,
2013-07-12 13:50:00,81.3,67.1,27.90,WSW,248,1.1,1.1,62,0.00,,---,0.00,VWS V14.01,2013-07-12 17:50:00,
2013-07-12 13:55:00,82.0,67.8,27.90,WSW,248,1.1,1.1,62,0.00,,---,0.00,VWS V14.01,2013-07-12 17:55:00,
2013-07-12 14:00:00,83.3,68.9,27.90,WSW,248,0.9,0.9,62,0.00,,---,0.00,VWS V14.01,2013-07-12 18:00:00,
2013-07-12 14:05:00,83.1,66.3,27.90,East,90,1.6,1.6,57,0.00,,---,0.00,VWS V14.01,2013-07-12 18:05:00,
2013-07-12 14:10:00,83.7,65.8,27.90,SW,225,0.0,1.1,55,0.00,,---,0.00,VWS V14.01,2013-07-12 18:10:00,
2013-07-12 14:15:00,84.0,65.6,27.90,WSW,248,0.9,2.0,54,0.00,,---,0.00,VWS V14.01,2013-07-12 18:15:00,
2013-07-12 14:20:00,82.0,64.3,27.90,ESE,112,1.1,2.5,55,0.00,,---,0.00,VWS V14.01,2013-07-12 18:20:00,
2013-07-12 14:25:00,82.4,65.7,27.90,SE,135,0.0,0.0,57,0.00,,---,0.00,VWS V14.01,2013-07-12 18:25:00,
2013-07-12 14:31:00,82.2,66.5,27.90,SW,225,0.0,2.0,59,0.00,,---,0.00,VWS V14.01,2013-07-12 18:31:00,
2013-07-12 14:36:00,83.5,66.2,27.90,SW,225,2.5,2.5,56,0.00,,---,0.00,VWS V14.01,2013-07-12 18:36:00,
2013-07-12 14:41:00,83.8,65.4,27.90,South,180,0.0,1.1,54,0.00,,---,0.00,VWS V14.01,2013-07-12 18:41:00,
2013-07-12 14:46:00,83.5,65.6,27.90,SSE,158,1.1,2.0,55,0.00,,---,0.00,VWS V14.01,2013-07-12 18:46:00,
2013-07-12 14:51:00,83.8,65.4,27.90,SW,225,0.0,1.1,54,0.00,,---,0.00,VWS V14.01,2013-07-12 18:51:00,
2013-07-12 14:56:00,84.6,65.0,27.90,SSW,202,0.0,0.9,52,0.00,,---,0.00,VWS V14.01,2013-07-12 18:56:00,
2013-07-12 15:01:00,84.4,64.8,27.90,SSW,202,0.9,1.3,52,0.00,,---,0.00,VWS V14.01,2013-07-12 19:01:00,
2013-07-12 15:06:00,84.7,64.1,27.90,WSW,248,0.0,0.0,50,0.00,,---,0.00,VWS V14.01,2013-07-12 19:06:00,
2013-07-12 15:12:00,84.9,63.1,27.90,NW,315,0.0,1.3,48,0.00,,---,0.00,VWS V14.01,2013-07-12 19:12:00,
2013-07-12 15:17:00,85.6,64.3,27.90,ESE,112,0.0,0.0,49,0.00,,---,0.00,VWS V14.01,2013-07-12 19:17:00,
2013-07-12 15:22:00,86.2,64.2,27.90,West,270,0.0,2.0,48,0.00,,---,0.00,VWS V14.01,2013-07-12 19:22:00,
2013-07-12 15:27:00,85.5,61.7,27.90,WSW,248,1.1,1.3,45,0.00,,---,0.00,VWS V14.01,2013-07-12 19:27:00,
2013-07-12 15:32:00,86.0,62.8,27.90,ESE,112,0.0,2.2,46,0.00,,---,0.00,VWS V14.01,2013-07-12 19:32:00,
2013-07-12 15:37:00,85.6,61.9,27.88,WSW,248,1.3,1.3,45,0.00,,---,0.00,VWS V14.01,2013-07-12 19:37:00,
2013-07-12 15:42:00,85.6,62.5,27.88,WSW,248,0.0,1.6,46,0.00,,---,0.00,VWS V14.01,2013-07-12 19:42:00,
2013-07-12 15:47:00,85.8,61.4,27.88,East,90,1.1,2.0,44,0.00,,---,0.00,VWS V14.01,2013-07-12 19:47:00,
2013-07-12 15:52:00,86.0,60.3,27.88,NW,315,2.2,2.2,42,0.00,,---,0.00,VWS V14.01,2013-07-12 19:52:00,
2013-07-12 15:57:00,85.8,61.4,27.88,East,90,1.6,1.6,44,0.00,,---,0.00,VWS V14.01,2013-07-12 19:57:00,
2013-07-12 16:02:00,86.4,61.9,27.88,WSW,248,0.0,0.0,44,0.00,,---,0.00,VWS V14.01,2013-07-12 20:02:00,
2013-07-12 16:07:00,86.5,61.4,27.88,WSW,248,0.0,0.9,43,0.00,,---,0.00,VWS V14.01,2013-07-12 20:07:00,
2013-07-12 16:12:00,86.5,61.4,27.88,SSE,158,0.0,0.0,43,0.00,,---,0.00,VWS V14.01,2013-07-12 20:12:00,
2013-07-12 16:17:00,86.0,60.9,27.88,SE,135,0.0,0.0,43,0.00,,---,0.00,VWS V14.01,2013-07-12 20:17:00,
2013-07-12 16:22:00,85.8,60.8,27.88,South,180,0.0,0.0,43,0.00,,---,0.00,VWS V14.01,2013-07-12 20:22:00,
2013-07-12 16:27:00,84.4,60.1,27.88,SW,225,0.0,1.6,44,0.00,,---,0.00,VWS V14.01,2013-07-12 20:27:00,
2013-07-12 16:33:00,84.7,61.1,27.88,SSW,202,0.0,0.9,45,0.00,,---,0.00,VWS V14.01,2013-07-12 20:33:00,
2013-07-12 16:38:00,84.6,60.3,27.88,WSW,248,1.1,2.0,44,0.00,,---,0.00,VWS V14.01,2013-07-12 20:38:00,
2013-07-12 16:43:00,84.4,60.7,27.88,WNW,292,1.1,2.5,45,0.00,,---,0.00,VWS V14.01,2013-07-12 20:43:00,
2013-07-12 16:48:00,84.4,60.7,27.88,ENE,68,0.0,0.0,45,0.00,,---,0.00,VWS V14.01,2013-07-12 20:48:00,
2013-07-12 16:53:00,85.5,62.3,27.88,ESE,112,0.0,0.0,46,0.00,,---,0.00,VWS V14.01,2013-07-12 20:53:00,
2013-07-12 16:58:00,86.0,62.2,27.88,WSW,248,0.9,0.9,45,0.00,,---,0.00,VWS V14.01,2013-07-12 20:58:00,
2013-07-12 17:03:00,85.8,61.4,27.88,WSW,248,0.0,0.0,44,0.00,,---,0.00,VWS V14.01,2013-07-12 21:03:00,
2013-07-12 17:08:00,85.6,61.2,27.88,SSE,158,0.0,1.1,44,0.00,,---,0.00,VWS V14.01,2013-07-12 21:08:00,
2013-07-12 17:14:00,85.6,61.2,27.88,ESE,112,2.0,2.9,44,0.00,,---,0.00,VWS V14.01,2013-07-12 21:14:00,
2013-07-12 17:19:00,85.5,60.4,27.88,SE,135,0.0,1.3,43,0.00,,---,0.00,VWS V14.01,2013-07-12 21:19:00,
2013-07-12 17:24:00,85.3,60.3,27.88,SW,225,0.0,1.1,43,0.00,,---,0.00,VWS V14.01,2013-07-12 21:24:00,
2013-07-12 17:29:00,83.7,58.8,27.88,WSW,248,5.6,5.6,43,0.00,,---,0.00,VWS V14.01,2013-07-12 21:29:00,
2013-07-12 17:34:00,82.4,57.7,27.88,WSW,248,0.0,0.0,43,0.00,,---,0.00,VWS V14.01,2013-07-12 21:34:00,
2013-07-12 17:39:00,81.1,57.2,27.88,North,0,2.2,2.2,44,0.00,,---,0.00,VWS V14.01,2013-07-12 21:39:00,
2013-07-12 17:44:00,80.4,57.8,27.88,NNW,338,0.9,3.8,46,0.00,,---,0.00,VWS V14.01,2013-07-12 21:44:00,
2013-07-12 17:49:00,79.7,57.1,27.88,East,90,0.0,0.0,46,0.00,,---,0.00,VWS V14.01,2013-07-12 21:49:00,
2013-07-12 17:55:00,79.2,57.2,27.88,WSW,248,1.1,1.1,47,0.00,,---,0.00,VWS V14.01,2013-07-12 21:55:00,
2013-07-12 18:00:00,78.8,56.9,27.88,WSW,248,0.0,0.9,47,0.00,,---,0.00,VWS V14.01,2013-07-12 22:00:00,
2013-07-12 18:05:00,78.3,57.0,27.88,NW,315,0.0,0.0,48,0.00,,---,0.00,VWS V14.01,2013-07-12 22:05:00,
2013-07-12 18:10:00,77.9,57.2,27.88,North,0,1.3,2.2,49,0.00,,---,0.00,VWS V14.01,2013-07-12 22:10:00,
2013-07-12 18:15:00,77.5,57.5,27.88,WNW,292,0.0,0.0,50,0.00,,---,0.00,VWS V14.01,2013-07-12 22:15:00,
2013-07-12 18:20:00,77.4,57.8,27.88,ENE,68,0.0,0.9,51,0.00,,---,0.00,VWS V14.01,2013-07-12 22:20:00,
2013-07-12 18:25:00,77.2,57.7,27.88,WNW,292,0.0,0.9,51,0.00,,---,0.00,VWS V14.01,2013-07-12 22:25:00,
2013-07-12 18:30:00,77.0,58.0,27.88,WSW,248,0.0,0.9,52,0.00,,---,0.00,VWS V14.01,2013-07-12 22:30:00,
2013-07-12 18:35:00,76.8,58.4,27.88,SW,225,0.0,0.9,53,0.00,,---,0.00,VWS V14.01,2013-07-12 22:35:00,
2013-07-12 18:40:00,76.6,58.8,27.88,WNW,292,3.1,3.1,54,0.00,,---,0.00,VWS V14.01,2013-07-12 22:40:00,
2013-07-12 18:46:00,76.5,59.1,27.88,SE,135,0.0,0.0,55,0.00,,---,0.00,VWS V14.01,2013-07-12 22:46:00,
2013-07-12 18:51:00,76.3,58.9,27.88,North,0,0.0,0.9,55,0.00,,---,0.00,VWS V14.01,2013-07-12 22:51:00,
2013-07-12 18:56:00,76.1,59.3,27.88,West,270,0.0,0.0,56,0.00,,---,0.00,VWS V14.01,2013-07-12 22:56:00,
2013-07-12 19:01:00,75.7,59.0,27.88,WSW,248,0.0,0.0,56,0.00,,---,0.00,VWS V14.01,2013-07-12 23:01:00,
2013-07-12 19:06:00,75.6,58.8,27.88,ESE,112,0.0,1.3,56,0.00,,---,0.00,VWS V14.01,2013-07-12 23:06:00,
2013-07-12 19:11:00,75.4,58.6,27.88,SW,225,0.0,0.9,56,0.00,,---,0.00,VWS V14.01,2013-07-12 23:11:00,
2013-07-12 19:16:00,75.2,58.9,27.88,WNW,292,0.0,1.3,57,0.00,,---,0.00,VWS V14.01,2013-07-12 23:16:00,
2013-07-12 19:22:00,74.8,58.6,27.88,SSW,202,0.0,2.2,57,0.00,,---,0.00,VWS V14.01,2013-07-12 23:22:00,
2013-07-12 19:27:00,74.7,58.4,27.88,North,0,0.0,0.9,57,0.00,,---,0.00,VWS V14.01,2013-07-12 23:27:00,
2013-07-12 19:32:00,74.5,58.8,27.88,SE,135,0.0,0.0,58,0.00,,---,0.00,VWS V14.01,2013-07-12 23:32:00,
2013-07-12 19:37:00,74.3,59.1,27.88,SE,135,0.0,0.0,59,0.00,,---,0.00,VWS V14.01,2013-07-12 23:37:00,
2013-07-12 19:42:00,74.1,59.4,27.88,WNW,292,0.9,0.9,60,0.00,,---,0.00,VWS V14.01,2013-07-12 23:42:00,
2013-07-12 19:47:00,73.9,59.7,27.88,NNE,22,0.0,0.9,61,0.00,,---,0.00,VWS V14.01,2013-07-12 23:47:00,
2013-07-12 19:52:00,73.8,59.5,27.90,WSW,248,0.0,0.0,61,0.00,,---,0.00,VWS V14.01,2013-07-12 23:52:00,
2013-07-12 19:57:00,73.6,59.8,27.90,SE,135,0.0,0.0,62,0.00,,---,0.00,VWS V14.01,2013-07-12 23:57:00,
2013-07-12 20:02:00,73.4,59.6,27.90,WNW,292,0.0,0.0,62,0.00,,---,0.00,VWS V14.01,2013-07-13 00:02:00,
2013-07-12 20:07:00,73.0,60.2,27.88,SW,225,0.0,0.0,64,0.00,,---,0.00,VWS V14.01,2013-07-13 00:07:00,
2013-07-12 20:12:00,72.9,60.4,27.88,SW,225,0.0,0.0,65,0.00,,---,0.00,VWS V14.01,2013-07-13 00:12:00,
2013-07-12 20:17:00,72.5,60.1,27.88,WSW,248,0.0,0.0,65,0.00,,---,0.00,VWS V14.01,2013-07-13 00:17:00,
2013-07-12 20:22:00,72.3,59.9,27.90,WSW,248,0.0,0.0,65,0.00,,---,0.00,VWS V14.01,2013-07-13 00:22:00,
2013-07-12 20:27:00,72.0,60.4,27.90,WSW,248,0.0,0.0,67,0.00,,---,0.00,VWS V14.01,2013-07-13 00:27:00,
2013-07-12 20:32:00,71.6,60.1,27.90,WSW,248,0.0,0.0,67,0.00,,---,0.00,VWS V14.01,2013-07-13 00:32:00,
2013-07-12 20:37:00,71.4,60.3,27.90,WSW,248,0.0,0.0,68,0.00,,---,0.00,VWS V14.01,2013-07-13 00:37:00,
2013-07-12 20:42:00,71.1,60.4,27.90,NW,315,0.0,0.0,69,0.00,,---,0.00,VWS V14.01,2013-07-13 00:42:00,
2013-07-12 20:48:00,70.5,59.9,27.90,NE,45,0.0,0.0,69,0.00,,---,0.00,VWS V14.01,2013-07-13 00:48:00,
2013-07-12 20:53:00,70.3,60.1,27.90,NW,315,0.0,0.0,70,0.00,,---,0.00,VWS V14.01,2013-07-13 00:53:00,
2013-07-12 20:58:00,70.0,59.8,27.90,NW,315,0.0,0.0,70,0.00,,---,0.00,VWS V14.01,2013-07-13 00:58:00,
2013-07-12 21:03:00,69.6,59.8,27.90,WNW,292,0.0,0.0,71,0.00,,---,0.00,VWS V14.01,2013-07-13 01:03:00,
2013-07-12 21:08:00,69.4,60.0,27.90,North,0,0.0,0.0,72,0.00,,---,0.00,VWS V14.01,2013-07-13 01:08:00,
2013-07-12 21:13:00,69.1,59.7,27.90,South,180,0.0,0.0,72,0.00,,---,0.00,VWS V14.01,2013-07-13 01:13:00,
2013-07-12 21:18:00,68.9,59.9,27.90,WSW,248,0.0,0.0,73,0.00,,---,0.00,VWS V14.01,2013-07-13 01:18:00,
2013-07-12 21:24:00,68.7,60.1,27.90,NW,315,0.0,0.9,74,0.00,,---,0.00,VWS V14.01,2013-07-13 01:24:00,
2013-07-12 21:29:00,68.5,60.3,27.90,NW,315,0.0,0.0,75,0.00,,---,0.00,VWS V14.01,2013-07-13 01:29:00,
2013-07-12 21:34:00,68.4,60.1,27.90,NNW,338,0.0,0.0,75,0.00,,---,0.00,VWS V14.01,2013-07-13 01:34:00,
2013-07-12 21:39:00,68.2,60.3,27.90,SW,225,0.0,0.0,76,0.00,,---,0.00,VWS V14.01,2013-07-13 01:39:00,
2013-07-12 21:44:00,68.0,60.2,27.90,North,0,0.0,0.0,76,0.00,,---,0.00,VWS V14.01,2013-07-13 01:44:00,
2013-07-12 21:49:00,67.8,60.3,27.90,North,0,0.0,0.0,77,0.00,,---,0.00,VWS V14.01,2013-07-13 01:49:00,
2013-07-12 21:54:00,67.8,60.3,27.90,SSW,202,0.0,0.9,77,0.00,,---,0.00,VWS V14.01,2013-07-13 01:54:00,
2013-07-12 21:59:00,67.6,60.5,27.90,WNW,292,0.0,0.0,78,0.00,,---,0.00,VWS V14.01,2013-07-13 01:59:00,
2013-07-12 22:04:00,67.5,60.4,27.90,NW,315,0.0,0.0,78,0.00,,---,0.00,VWS V14.01,2013-07-13 02:04:00,
2013-07-12 22:10:00,67.3,60.2,27.90,NNW,338,0.0,0.0,78,0.00,,---,0.00,VWS V14.01,2013-07-13 02:10:00,
2013-07-12 22:16:00,66.9,59.8,27.90,WNW,292,0.0,0.0,78,0.00,,---,0.00,VWS V14.01,2013-07-13 02:16:00,
2013-07-12 22:21:00,66.9,60.2,27.90,NNW,338,0.0,0.0,79,0.00,,---,0.00,VWS V14.01,2013-07-13 02:21:00,
2013-07-12 22:26:00,66.7,60.0,27.90,WNW,292,0.0,0.0,79,0.00,,---,0.00,VWS V14.01,2013-07-13 02:26:00,
2013-07-12 22:31:00,66.6,59.8,27.90,WNW,292,0.0,0.0,79,0.00,,---,0.00,VWS V14.01,2013-07-13 02:31:00,
2013-07-12 22:36:00,66.6,59.8,27.90,NW,315,0.0,0.0,79,0.00,,---,0.00,VWS V14.01,2013-07-13 02:36:00,
2013-07-12 22:41:00,66.2,59.5,27.90,WSW,248,0.0,0.0,79,0.00,,---,0.00,VWS V14.01,2013-07-13 02:41:00,
2013-07-12 22:46:00,66.2,59.9,27.90,North,0,0.0,0.0,80,0.00,,---,0.00,VWS V14.01,2013-07-13 02:46:00,
2013-07-12 22:51:00,66.2,59.9,27.93,NW,315,0.0,0.0,80,0.00,,---,0.00,VWS V14.01,2013-07-13 02:51:00,
2013-07-12 22:56:00,66.0,59.7,27.93,NW,315,0.0,0.0,80,0.00,,---,0.00,VWS V14.01,2013-07-13 02:56:00,
2013-07-12 23:01:00,66.0,59.7,27.93,WNW,292,0.0,0.0,80,0.00,,---,0.00,VWS V14.01,2013-07-13 03:01:00,
2013-07-12 23:06:00,65.8,59.5,27.93,NW,315,0.0,0.0,80,0.00,,---,0.00,VWS V14.01,2013-07-13 03:06:00,
2013-07-12 23:11:00,65.7,59.3,27.93,NW,315,0.0,0.0,80,0.00,,---,0.00,VWS V14.01,2013-07-13 03:11:00,
2013-07-12 23:17:00,65.7,59.3,27.93,West,270,0.0,0.0,80,0.00,,---,0.00,VWS V14.01,2013-07-13 03:17:00,
2013-07-12 23:22:00,65.5,59.2,27.93,NW,315,0.0,0.0,80,0.00,,---,0.00,VWS V14.01,2013-07-13 03:22:00,
2013-07-12 23:27:00,65.5,59.5,27.93,North,0,0.0,0.0,81,0.00,,---,0.00,VWS V14.01,2013-07-13 03:27:00,
2013-07-12 23:32:00,65.3,59.3,27.93,NNW,338,0.0,0.0,81,0.00,,---,0.00,VWS V14.01,2013-07-13 03:32:00,
2013-07-12 23:37:00,65.1,59.2,27.93,WNW,292,0.0,0.0,81,0.00,,---,0.00,VWS V14.01,2013-07-13 03:37:00,
2013-07-12 23:42:00,65.1,59.2,27.93,WSW,248,0.0,0.0,81,0.00,,---,0.00,VWS V14.01,2013-07-13 03:42:00,
2013-07-12 23:47:00,65.1,59.2,27.93,WNW,292,0.0,0.0,81,0.00,,---,0.00,VWS V14.01,2013-07-13 03:47:00,
2013-07-12 23:52:00,65.1,59.2,27.93,WNW,292,0.9,0.9,81,0.00,,---,0.00,VWS V14.01,2013-07-13 03:52:00,
2013-07-12 23:58:00,64.9,59.0,27.93,WNW,292,0.0,0.0,81,0.00,,---,0.00,VWS V14.01,2013-07-13 03:58:00,